Portada
METAR-TAF:

METAR-TAF

Aeropuertos :

Delta Junction / Fort Greely, Alaska, Estados Unidos

latitud: 64-00N, longitud: 145-44W, altitud: 389 m

Observación

El informe se hizo hace 53 minutos, a las 03:53 UTC
Viento 3 kt del norte-noreste
Temperatura 22°C
Humedad 35%
Presión 1024 hPa
Visibilidad: 16.1 km
Escasas nubes a una altura de 6000 ft
Cielo nuboso a una altura de 20000 ft

METAR: PABI 250353Z 02003KT 10SM FEW060 BKN200 22/06 A3025 RMK AO2 SLP244 FU ALQDS T02220061

Hora: 20:46 (04:46 UTC)

Pronóstico

El informe se hizo hace 6 horas y 46 minutos, a las 22:00 UTC
Pronóstico válido del 24 a las 22 UTC al 26 a las 04 UTC
Viento 6 kt con dirección variable
Visibilidad 10 km o más
Nubes dispersas a una altura de 6000 ft
Nubes dispersas a una altura de 14000 ft

TAF: PABI 242200Z 2422/2604 VRB06KT 9999 SCT060 SCT140 QNH3026INS TX19/2522Z TN11/2513Z

Observaciones y pronósticos meteorológicos de más de 4000 aeropuertos (mensajes METAR y TAF).

Los puntos amarillos y rojos representan las estaciones disponibles.

Ponga el ratón en el punto deseado para ver el nombre de la estación.

Haga clic para ver las observaciones y los pronósticos meteorológicos.

Para cambiar el mapa : haga clic en los botones verdes con una cruz de color negro para hacer un zoom, en el botón verde con un guión para alejar o en las flechas verdes para mapas adyacentes.


METAR-TAF: